AirNav   Everest Fuels
 
 1564 users online  

3WA4 Watson Airport
Kahlotus, Washington, USA

GOING TO KAHLOTUS?


FAA INFORMATION EFFECTIVE 04 NOVEMBER 2021

Location

FAA Identifier: 3WA4
Lat/Long: 46-42-59.5100N 118-37-03.9650W
46-42.991833N 118-37.066083W
46.7165306,-118.6177681
(estimated)
Elevation: 1349 ft. / 411 m (estimated)
Variation: 19E (1985)
From city: 6 miles NW of KAHLOTUS, WA
Time zone: UTC -8 (UTC -7 during Daylight Saving Time)
Zip code: 99326

Airport Operations

Airport use: Private use. Permission required prior to landing
Control tower: no
ARTCC: SEATTLE CENTER
FSS: SEATTLE FLIGHT SERVICE STATION
Attendance: UNATNDD
Segmented circle: no

Nearby radio navigation aids

VOR radial/distance  VOR name  Freq  Var
PSCr023/33.8PASCO VOR/DME109.8015E

Airport Services

Airframe service: NONE
Powerplant service: NONE

Runway Information

Runway NE/SW

Dimensions: 1800 x 60 ft. / 549 x 18 m
Surface: turf
RUNWAY NE  RUNWAY SW
Traffic pattern: leftleft

Airport Ownership and Management from official FAA records

Ownership: Privately-owned
Owner: ALEX R WATSON
BOX 40-5461 WADSWORTH RD
KAHLOTUS, WA 99335
Phone 509-677-3214
Manager: ALEX R WATSON
BOX 40-5461 WADSWORTH RD
KAHLOTUS, WA 99335
Phone 509-677-3214

Additional Remarks

FOR CD CTC SEATTLE ARTCC AT 253-351-3694.

Instrument Procedures

There are no published instrument procedures at 3WA4.

Some nearby airports with instrument procedures:

KPSC - Tri-Cities Airport (34 nm SW)
KRLD - Richland Airport (38 nm SW)
KALW - Walla Walla Regional Airport (40 nm S)
KMWH - Grant County International Airport (41 nm NW)
KEPH - Ephrata Municipal Airport (51 nm NW)
 
Loc | Ops | Rwys | IFR | FBO | Links
Com | Nav | Svcs | Stats | Notes
Area around 3WA4 (Watson Airport)
 
Road maps at: MapQuest Bing Google
 
Aerial photo
No photo
 
Sectional chart

 
Airport distance calculator
Flying to Watson Airport? Find the distance to fly.

From to 3WA4

Sunrise and sunset
Times for 29-Nov-2021
 Local
(UTC-8)
 Zulu
(UTC)
Morning civil twilight06:4314:43
Sunrise07:1715:17
Sunset16:0900:09
Evening civil twilight16:4300:43

Current date and time
Zulu (UTC)  30-Nov-2021 00:47:43
Local (UTC-8)  29-Nov-2021 16:47:43
 
METAR
KPSC 
34nm SW 
292353Z 23006KT 10SM CLR 16/08 A3025 RMK AO2 SLP242 60000 T01560078 10178 20133 53002
KRLD 
38nm SW 
300035Z AUTO 21009KT 10SM CLR 15/09 A3024 RMK AO2 T01510092
KALW 
39nm S 
292353Z 19006KT 10SM CLR 13/07 A3026 RMK AO2 SLP249 60000 T01280067 10144 20106 53002
KMWH 
41nm NW 
292352Z 22006KT 10SM CLR 14/05 A3022 RMK AO2 SLP233 T01440050 10172 20122 53008
TAF
KPSC 
34nm SW 
291736Z 2918/3018 22010KT P6SM BKN100 FM291900 23011KT P6SM FEW250 FM300200 20006KT P6SM SCT200 FM301200 22010KT P6SM BKN120
KALW 
39nm S 
291736Z 2918/3018 19011KT P6SM VCSH SCT040 OVC100 FM292000 20011G18KT P6SM FEW250 FM300100 16008KT P6SM SCT250 FM301300 19011KT P6SM BKN120
KMWH 
41nm NW 
291737Z 2918/3018 22004KT P6SM FEW110 FM292100 24007KT P6SM FEW070 SCT150 FM300500 21005KT P6SM BKN150 FM301400 19005KT P6SM OVC100
NOTAMs
Click for the latest NOTAMs
NOTAMs are issued by the DoD/FAA and will open in a separate window not controlled by AirNav.

 

 
 

Would you like to see your business listed on this page?

 If your business provides an interesting product or service to pilots, flight crews, aircraft, or users of the Watson Airport, you should consider listing it here.  To start the listing process, click on the button below
 
Add a business
 

Other Pages about Watson Airport

Update a link
 
Copyright © AirNav, LLC. All rights reserved. Privacy Policy  Contact